createdAt,value
2023-02-12T00:01:29.329Z,103715.06
2023-02-12T00:03:59.268Z,103716.94
2023-02-12T00:06:28.209Z,103716.72
2023-02-12T00:09:00.266Z,103717.91
2023-02-12T00:11:30.507Z,103713.38
2023-02-12T00:13:59.771Z,103710.44
2023-02-12T00:16:29.885Z,103706.00
2023-02-12T00:19:01.332Z,103717.84
2023-02-12T00:21:29.719Z,103695.22
2023-02-12T00:23:58.761Z,103713.66
2023-02-12T00:26:27.096Z,103717.84
2023-02-12T00:28:56.241Z,103716.94
2023-02-12T00:31:27.056Z,103724.94
2023-02-12T00:34:00.391Z,103729.56
2023-02-12T00:36:31.256Z,103728.19
2023-02-12T00:39:01.385Z,103723.84
2023-02-12T00:41:30.165Z,103713.31
2023-02-12T00:43:59.021Z,103712.41
2023-02-12T00:46:28.278Z,103709.50
2023-02-12T00:48:56.672Z,103713.97
2023-02-12T00:51:26.279Z,103710.41
2023-02-12T00:53:54.652Z,103722.00
2023-02-12T00:56:22.941Z,103712.88
2023-02-12T00:58:51.375Z,103719.78
2023-02-12T01:01:20.093Z,103711.91
2023-02-12T01:03:48.518Z,103709.38
2023-02-12T01:06:16.800Z,103712.41
2023-02-12T01:08:52.526Z,103705.81
2023-02-12T01:11:21.210Z,103686.31
2023-02-12T01:13:50.197Z,103704.66
2023-02-12T01:16:22.744Z,103707.25
2023-02-12T01:18:55.695Z,103708.53
2023-02-12T01:21:27.304Z,103715.06
2023-02-12T01:23:58.557Z,103712.50
2023-02-12T01:26:28.173Z,103689.03
2023-02-12T01:28:58.866Z,103712.56
2023-02-12T01:31:30.772Z,103704.41
2023-02-12T01:34:01.555Z,103705.47
2023-02-12T01:36:31.679Z,103703.75
2023-02-12T01:39:02.981Z,103715.03
2023-02-12T01:41:34.644Z,103710.00
2023-02-12T01:44:14.200Z,103702.59
2023-02-12T01:46:44.341Z,103701.81
2023-02-12T01:49:19.466Z,103711.66
2023-02-12T01:51:51.700Z,103714.34
2023-02-12T01:54:25.734Z,103699.84
2023-02-12T01:56:54.538Z,103675.75
2023-02-12T01:59:23.719Z,103709.28
2023-02-12T02:01:52.146Z,103712.03
2023-02-12T02:04:28.436Z,103709.50
2023-02-12T02:06:59.956Z,103717.31
2023-02-12T02:09:30.990Z,103716.38
2023-02-12T02:12:17.257Z,103716.38
2023-02-12T02:14:46.636Z,103714.47
2023-02-12T02:17:30.686Z,103725.28
2023-02-12T02:20:50.431Z,103717.28
2023-02-12T02:24:19.509Z,103722.72
2023-02-12T02:27:16.897Z,103719.41
2023-02-12T02:30:19.458Z,103708.84
2023-02-12T02:32:57.294Z,103711.50
2023-02-12T02:35:34.301Z,103721.44
2023-02-12T02:38:22.099Z,103722.28
2023-02-12T02:40:56.772Z,103716.03
2023-02-12T02:43:30.918Z,103716.03
2023-02-12T02:46:07.235Z,103716.16
2023-02-12T02:48:40.093Z,103711.78
2023-02-12T02:51:14.358Z,103706.44
2023-02-12T02:53:49.627Z,103713.66
2023-02-12T02:56:23.108Z,103712.69
2023-02-12T02:58:56.696Z,103619.88
2023-02-12T03:01:31.214Z,103699.44
2023-02-12T03:04:05.826Z,103711.69
2023-02-12T03:06:42.162Z,103692.16
2023-02-12T03:09:22.879Z,103686.03
2023-02-12T03:11:51.959Z,103691.91
2023-02-12T03:14:26.102Z,103698.38
2023-02-12T03:17:00.582Z,103687.56
2023-02-12T03:19:33.502Z,103692.44
2023-02-12T03:22:07.576Z,103702.25
2023-02-12T03:24:42.516Z,103696.44
2023-02-12T03:27:15.041Z,103695.25
2023-02-12T03:29:43.525Z,103684.16
2023-02-12T03:32:32.108Z,103688.09
2023-02-12T03:35:11.472Z,103690.38
2023-02-12T03:37:46.845Z,103685.81
2023-02-12T03:40:20.453Z,103684.81
2023-02-12T03:42:56.723Z,103687.84
2023-02-12T03:45:39.972Z,103690.63
2023-02-12T03:48:14.006Z,103691.72
2023-02-12T03:50:50.997Z,103689.19
2023-02-12T03:53:19.375Z,103694.59
2023-02-12T03:55:53.339Z,103578.38
2023-02-12T03:58:28.509Z,103662.22
2023-02-12T04:00:57.871Z,103697.75
2023-02-12T04:03:28.087Z,103696.19
2023-02-12T04:05:56.630Z,103697.28
2023-02-12T04:08:27.520Z,103701.28
2023-02-12T04:11:09.146Z,103694.09
2023-02-12T04:13:48.298Z,103705.03
2023-02-12T04:16:26.801Z,103705.75
2023-02-12T04:18:57.061Z,103714.47
2023-02-12T04:21:45.681Z,103719.88
2023-02-12T04:24:20.931Z,103692.13
2023-02-12T04:26:55.892Z,103719.47
2023-02-12T04:29:33.984Z,103728.47
2023-02-12T04:32:09.022Z,103733.31
2023-02-12T04:34:46.933Z,103616.88
2023-02-12T04:37:19.531Z,103732.34
2023-02-12T04:39:49.536Z,103737.53
2023-02-12T04:42:18.068Z,103736.84
2023-02-12T04:44:46.592Z,103725.28
2023-02-12T04:47:16.382Z,103738.53
2023-02-12T04:49:46.152Z,103740.84
2023-02-12T04:52:14.462Z,103738.00
2023-02-12T04:54:42.697Z,103731.84
2023-02-12T04:57:11.100Z,103735.56
2023-02-12T04:59:39.426Z,103742.03
2023-02-12T05:02:07.645Z,103728.75
2023-02-12T05:04:35.952Z,103738.63
2023-02-12T05:07:05.615Z,103733.31
2023-02-12T05:09:34.130Z,103729.63
2023-02-12T05:12:02.356Z,103702.72
2023-02-12T05:14:30.765Z,103731.34
2023-02-12T05:16:59.006Z,103728.50
2023-02-12T05:19:27.395Z,103726.78
2023-02-12T05:21:55.684Z,103730.19
2023-02-12T05:24:25.926Z,103733.63
2023-02-12T05:26:54.248Z,103724.72
2023-02-12T05:29:22.658Z,103723.03
2023-02-12T05:31:51.130Z,103719.06
2023-02-12T05:34:20.286Z,103732.50
2023-02-12T05:36:48.596Z,103725.69
2023-02-12T05:39:16.785Z,103720.88
2023-02-12T05:41:46.508Z,103719.63
2023-02-12T05:44:15.205Z,103730.22
2023-02-12T05:46:44.301Z,103728.00
2023-02-12T05:49:12.790Z,103721.53
2023-02-12T05:51:41.142Z,103730.22
2023-02-12T05:54:09.610Z,103737.16
2023-02-12T05:56:43.054Z,103706.56
2023-02-12T05:59:18.128Z,103744.50
2023-02-12T06:01:48.393Z,103739.25
2023-02-12T06:04:20.599Z,103726.84
2023-02-12T06:06:49.089Z,103734.25
2023-02-12T06:09:17.477Z,103734.56
2023-02-12T06:11:45.970Z,103741.19
2023-02-12T06:14:19.472Z,103733.78
2023-02-12T06:16:50.039Z,103727.16
2023-02-12T06:19:19.420Z,103739.00
2023-02-12T06:21:47.960Z,103736.53
2023-02-12T06:24:17.469Z,103721.44
2023-02-12T06:26:46.791Z,103740.28
2023-02-12T06:29:16.438Z,103729.69
2023-02-12T06:31:44.923Z,103729.94
2023-02-12T06:34:16.715Z,103728.38
2023-02-12T06:36:47.145Z,103736.59
2023-02-12T06:39:18.127Z,103736.75
2023-02-12T06:41:46.513Z,103726.94
2023-02-12T06:44:16.268Z,103740.22
2023-02-12T06:46:44.577Z,103742.09
2023-02-12T06:49:14.575Z,103747.00
2023-02-12T06:51:43.318Z,103742.44
2023-02-12T06:54:16.005Z,103726.22
2023-02-12T06:56:44.750Z,103742.16
2023-02-12T06:59:17.585Z,103743.06
2023-02-12T07:01:46.076Z,103739.22
2023-02-12T07:04:14.984Z,103733.41
2023-02-12T07:06:43.377Z,103744.88
2023-02-12T07:09:11.737Z,103756.75
2023-02-12T07:11:40.165Z,103764.84
2023-02-12T07:14:08.829Z,103759.34
2023-02-12T07:16:38.850Z,103763.41
2023-02-12T07:19:07.207Z,103769.88
2023-02-12T07:21:35.486Z,103765.66
2023-02-12T07:24:03.886Z,103771.75
2023-02-12T07:26:32.222Z,103782.53
2023-02-12T07:29:00.539Z,103781.56
2023-02-12T07:31:29.386Z,103776.50
2023-02-12T07:34:01.202Z,103786.22
2023-02-12T07:36:32.862Z,103787.38
2023-02-12T07:39:01.665Z,103797.38
2023-02-12T07:41:32.173Z,103795.19
2023-02-12T07:44:03.714Z,103791.31
2023-02-12T07:46:35.246Z,103768.03
2023-02-12T07:49:07.705Z,103796.75
2023-02-12T07:51:37.513Z,103799.66
2023-02-12T07:54:06.353Z,103807.59
2023-02-12T07:56:37.569Z,103800.88
2023-02-12T07:59:08.335Z,103797.06
2023-02-12T08:01:38.116Z,103798.25
2023-02-12T08:04:10.407Z,103793.13
2023-02-12T08:06:41.906Z,103794.28
2023-02-12T08:09:12.710Z,103796.16
2023-02-12T08:11:42.354Z,103800.84
2023-02-12T08:14:14.418Z,103802.53
2023-02-12T08:16:44.760Z,103809.00
2023-02-12T08:19:19.724Z,103805.44
2023-02-12T08:21:52.017Z,103803.03
2023-02-12T08:24:21.991Z,103802.28
2023-02-12T08:26:50.950Z,103804.97
2023-02-12T08:29:22.797Z,103694.16
2023-02-12T08:31:52.664Z,103793.56
2023-02-12T08:34:25.521Z,103805.28
2023-02-12T08:36:55.836Z,103807.16
2023-02-12T08:39:25.643Z,103813.31
2023-02-12T08:41:56.379Z,103791.34
2023-02-12T08:44:25.392Z,103809.34
2023-02-12T08:46:55.565Z,103819.03
2023-02-12T08:49:29.207Z,103832.25
2023-02-12T08:52:01.654Z,103819.84
2023-02-12T08:54:32.441Z,103820.72
2023-02-12T08:57:02.935Z,103825.56
2023-02-12T08:59:32.070Z,103826.66
2023-02-12T09:02:00.752Z,103825.56
2023-02-12T09:04:31.132Z,103825.91
2023-02-12T09:06:59.786Z,103823.41
2023-02-12T09:09:28.160Z,103836.09
2023-02-12T09:11:56.474Z,103812.03
2023-02-12T09:14:25.325Z,103835.03
2023-02-12T09:16:54.790Z,103790.19
2023-02-12T09:19:23.291Z,103841.84
2023-02-12T09:21:57.473Z,103847.03
2023-02-12T09:24:27.551Z,103848.81
2023-02-12T09:26:56.185Z,103847.03
2023-02-12T09:29:24.531Z,103847.25
2023-02-12T09:31:53.148Z,103851.03
2023-02-12T09:34:21.592Z,103851.13
2023-02-12T09:36:49.907Z,103845.84
2023-02-12T09:39:19.929Z,103844.09
2023-02-12T09:42:29.457Z,103847.34
2023-02-12T09:45:06.452Z,103845.47
2023-02-12T09:47:44.915Z,103841.06
2023-02-12T09:50:32.938Z,103842.63
2023-02-12T09:53:01.663Z,103812.03
2023-02-12T09:55:34.164Z,103838.13
2023-02-12T09:58:05.597Z,103830.63
2023-02-12T10:00:34.059Z,103850.75
2023-02-12T10:03:05.916Z,103840.47
2023-02-12T10:05:40.664Z,103838.06
2023-02-12T10:08:33.519Z,103839.94
2023-02-12T10:11:20.816Z,103837.53
2023-02-12T10:14:00.431Z,103842.94
2023-02-12T10:16:44.993Z,103840.63
2023-02-12T10:19:31.102Z,103839.78
2023-02-12T10:22:09.834Z,103844.47
2023-02-12T10:25:00.769Z,103834.63
2023-02-12T10:27:38.825Z,103848.22
2023-02-12T10:30:19.948Z,103844.75
2023-02-12T10:32:53.044Z,103829.34
2023-02-12T10:35:24.220Z,103841.31
2023-02-12T10:37:59.509Z,103842.22
2023-02-12T10:40:32.699Z,103843.91
2023-02-12T10:43:03.603Z,103865.09
2023-02-12T10:45:35.326Z,103844.75
2023-02-12T10:48:11.549Z,103839.63
2023-02-12T10:50:51.531Z,103845.13
2023-02-12T10:53:24.100Z,103853.16
2023-02-12T10:56:12.773Z,103848.78
2023-02-12T10:58:52.683Z,103847.69
2023-02-12T11:01:26.890Z,103846.84
2023-02-12T11:03:56.512Z,103848.72
2023-02-12T11:06:28.785Z,103846.81
2023-02-12T11:08:58.853Z,103843.97
2023-02-12T11:11:31.107Z,103822.19
2023-02-12T11:14:06.396Z,103833.25
2023-02-12T11:16:37.246Z,103824.09
2023-02-12T11:19:08.771Z,103838.38
2023-02-12T11:21:37.509Z,103836.66
2023-02-12T11:24:33.968Z,103839.34
2023-02-12T11:27:23.398Z,103833.66
2023-02-12T11:30:17.346Z,103837.25
2023-02-12T11:32:46.581Z,103834.72
2023-02-12T11:35:23.845Z,103825.66
2023-02-12T11:37:55.547Z,103836.66
2023-02-12T11:40:27.845Z,103832.41
2023-02-12T11:42:58.889Z,103837.66
2023-02-12T11:45:35.429Z,103834.19
2023-02-12T11:48:04.529Z,103827.94
2023-02-12T11:50:34.239Z,103827.19
2023-02-12T11:53:06.933Z,103825.41
2023-02-12T11:55:39.001Z,103827.19
2023-02-12T11:58:18.112Z,103822.06
2023-02-12T12:00:53.041Z,103818.56
2023-02-12T12:03:26.674Z,103815.97
2023-02-12T12:06:02.356Z,103746.16
2023-02-12T12:08:38.415Z,103817.66
2023-02-12T12:11:14.529Z,103815.09
2023-02-12T12:13:51.489Z,103760.03
2023-02-12T12:16:50.440Z,103820.47
2023-02-12T12:19:43.218Z,103812.72
2023-02-12T12:22:22.272Z,103806.19
2023-02-12T12:24:58.831Z,103811.19
2023-02-12T12:28:04.155Z,103719.00
2023-02-12T12:31:04.675Z,103807.25
2023-02-12T12:33:42.736Z,103802.56
2023-02-12T12:36:56.731Z,103805.00
2023-02-12T12:39:36.102Z,103802.75
2023-02-12T12:42:42.065Z,103799.25
2023-02-12T12:45:41.865Z,103798.13
2023-02-12T12:48:27.145Z,103798.03
2023-02-12T12:51:17.537Z,103796.78
2023-02-12T12:54:00.288Z,103781.75
2023-02-12T12:56:47.189Z,103787.00
2023-02-12T12:59:59.165Z,103784.47
2023-02-12T13:03:07.495Z,103777.91
2023-02-12T13:06:02.772Z,103781.66
2023-02-12T13:08:53.653Z,103763.72
2023-02-12T13:11:35.273Z,103770.19
2023-02-12T13:14:20.528Z,103769.56
2023-02-12T13:16:53.007Z,103770.69
2023-02-12T13:19:44.793Z,103767.06
2023-02-12T13:22:24.205Z,103759.97
2023-02-12T13:25:03.435Z,103764.41
2023-02-12T13:27:37.135Z,103767.25
2023-02-12T13:30:13.207Z,103760.44
2023-02-12T13:32:46.425Z,103761.44
2023-02-12T13:35:20.539Z,103757.44
2023-02-12T13:37:54.584Z,103749.81
2023-02-12T13:40:25.897Z,103751.72
2023-02-12T13:43:02.162Z,103746.09
2023-02-12T13:45:43.387Z,103740.53
2023-02-12T13:48:33.220Z,103737.16
2023-02-12T13:51:11.538Z,103745.41
2023-02-12T13:53:55.409Z,103735.03
2023-02-12T13:56:39.052Z,103745.34
2023-02-12T13:59:49.397Z,103735.59
2023-02-12T14:02:46.418Z,103735.66
2023-02-12T14:05:31.962Z,103747.16
2023-02-12T14:08:05.391Z,103745.56
2023-02-12T14:10:39.266Z,103726.72
2023-02-12T14:13:21.932Z,103720.88
2023-02-12T14:15:53.295Z,103719.16
2023-02-12T14:18:34.757Z,103702.06
2023-02-12T14:21:45.649Z,103724.78
2023-02-12T14:24:52.766Z,103711.88
2023-02-12T14:27:29.232Z,103720.50
2023-02-12T14:30:27.578Z,103635.63
2023-02-12T14:33:31.224Z,103730.84
2023-02-12T14:36:20.833Z,103714.75
2023-02-12T14:39:02.632Z,103715.28
2023-02-12T14:41:44.440Z,103707.22
2023-02-12T14:44:49.112Z,103704.06
2023-02-12T14:47:51.975Z,103707.59
2023-02-12T14:50:30.127Z,103713.75
2023-02-12T14:53:27.078Z,103701.28
2023-02-12T14:55:57.054Z,103705.75
2023-02-12T14:58:28.089Z,103710.06
2023-02-12T15:00:58.794Z,103706.66
2023-02-12T15:03:31.547Z,103707.50
2023-02-12T15:06:06.280Z,103702.03
2023-02-12T15:08:44.912Z,103700.69
2023-02-12T15:11:35.336Z,103703.59
2023-02-12T15:14:08.712Z,103701.16
2023-02-12T15:16:48.047Z,103703.84
2023-02-12T15:19:34.834Z,103700.88
2023-02-12T15:22:03.216Z,103689.34
2023-02-12T15:24:31.630Z,103695.69
2023-02-12T15:27:01.492Z,103677.94
2023-02-12T15:29:36.472Z,103696.38
2023-02-12T15:32:09.800Z,103692.44
2023-02-12T15:34:41.811Z,103624.91
2023-02-12T15:37:16.889Z,103689.41
2023-02-12T15:39:48.070Z,103652.78
2023-02-12T15:42:30.103Z,103671.66
2023-02-12T15:45:22.068Z,103683.63
2023-02-12T15:48:03.627Z,103682.06
2023-02-12T15:50:34.166Z,103681.91
2023-02-12T15:53:02.856Z,103684.06
2023-02-12T15:55:39.178Z,103692.13
2023-02-12T15:58:24.039Z,103687.38
2023-02-12T16:00:54.756Z,103679.47
2023-02-12T16:03:26.251Z,103684.97
2023-02-12T16:06:05.365Z,103682.41
2023-02-12T16:08:35.723Z,103681.25
2023-02-12T16:11:13.832Z,103683.78
2023-02-12T16:13:47.555Z,103689.19
2023-02-12T16:16:25.787Z,103684.41
2023-02-12T16:19:19.830Z,103654.44
2023-02-12T16:21:51.954Z,103686.44
2023-02-12T16:24:29.857Z,103694.53
2023-02-12T16:27:00.433Z,103692.16
2023-02-12T16:29:31.638Z,103692.69
2023-02-12T16:32:03.259Z,103613.38
2023-02-12T16:34:37.133Z,103694.13
2023-02-12T16:37:44.939Z,103689.34
2023-02-12T16:40:31.542Z,103681.13
2023-02-12T16:43:21.637Z,103686.66
2023-02-12T16:45:50.649Z,103683.38
2023-02-12T16:48:25.358Z,103681.56
2023-02-12T16:50:58.541Z,103699.63
2023-02-12T16:53:47.445Z,103689.50
2023-02-12T16:56:21.032Z,103681.72
2023-02-12T16:58:51.927Z,103684.19
2023-02-12T17:01:25.347Z,103686.13
2023-02-12T17:03:55.270Z,103692.44
2023-02-12T17:06:27.857Z,103696.81
2023-02-12T17:08:57.210Z,103596.75
2023-02-12T17:11:28.101Z,103698.19
2023-02-12T17:13:57.217Z,103673.34
2023-02-12T17:16:30.780Z,103695.56
2023-02-12T17:19:00.283Z,103693.00
2023-02-12T17:21:37.812Z,103694.78
2023-02-12T17:24:07.218Z,103693.41
2023-02-12T17:26:35.531Z,103695.84
2023-02-12T17:29:06.271Z,103692.28
2023-02-12T17:31:34.611Z,103696.81
2023-02-12T17:34:03.094Z,103687.66
2023-02-12T17:36:32.956Z,103677.03
2023-02-12T17:39:02.092Z,103709.44
2023-02-12T17:41:30.548Z,103706.06
2023-02-12T17:43:58.948Z,103707.38
2023-02-12T17:46:29.927Z,103692.13
2023-02-12T17:48:58.331Z,103716.72
2023-02-12T17:51:27.134Z,103686.47
2023-02-12T17:53:56.803Z,103719.81
2023-02-12T17:56:26.549Z,103723.47
2023-02-12T17:58:55.125Z,103724.41
2023-02-12T18:01:25.286Z,103720.06
2023-02-12T18:03:55.777Z,103727.63
2023-02-12T18:06:25.761Z,103726.75
2023-02-12T18:08:54.234Z,103733.97
2023-02-12T18:11:24.065Z,103726.25
2023-02-12T18:13:54.355Z,103729.28
2023-02-12T18:16:24.098Z,103697.34
2023-02-12T18:18:52.422Z,103722.44
2023-02-12T18:21:21.109Z,103714.59
2023-02-12T18:23:49.554Z,103720.50
2023-02-12T18:26:19.899Z,103672.59
2023-02-12T18:28:50.134Z,103727.38
2023-02-12T18:31:23.558Z,103713.84
2023-02-12T18:33:51.960Z,103698.19
2023-02-12T18:36:22.330Z,103716.44
2023-02-12T18:38:52.885Z,103713.63
2023-02-12T18:41:24.314Z,103715.09
2023-02-12T18:43:54.784Z,103708.25
2023-02-12T18:46:25.838Z,103707.16
2023-02-12T18:48:54.843Z,103712.06
2023-02-12T18:51:25.932Z,103707.41
2023-02-12T18:53:56.414Z,103705.41
2023-02-12T18:56:25.174Z,103708.38
2023-02-12T18:58:58.568Z,103705.81
2023-02-12T19:01:27.854Z,103700.38
2023-02-12T19:03:58.959Z,103700.06
2023-02-12T19:06:27.698Z,103702.81
2023-02-12T19:08:57.136Z,103700.72
2023-02-12T19:11:25.968Z,103699.47
2023-02-12T19:13:56.173Z,103698.88
2023-02-12T19:16:26.010Z,103694.53
2023-02-12T19:18:59.987Z,103698.50
2023-02-12T19:21:28.415Z,103693.25
2023-02-12T19:23:58.202Z,103694.50
2023-02-12T19:26:27.963Z,103689.50
2023-02-12T19:28:58.502Z,103691.28
2023-02-12T19:31:29.544Z,103689.13
2023-02-12T19:34:00.937Z,103688.53
2023-02-12T19:36:32.990Z,103696.56
2023-02-12T19:39:01.471Z,103695.31
2023-02-12T19:41:32.818Z,103703.19
2023-02-12T19:44:03.164Z,103703.06
2023-02-12T19:46:32.744Z,103696.69
2023-02-12T19:49:03.237Z,103696.84
2023-02-12T19:51:32.537Z,103692.31
2023-02-12T19:54:04.151Z,103692.31
2023-02-12T19:56:32.717Z,103684.81
2023-02-12T19:59:03.003Z,103684.41
2023-02-12T20:01:31.761Z,103686.81
2023-02-12T20:04:00.611Z,103689.41
2023-02-12T20:06:32.936Z,103684.47
2023-02-12T20:09:01.292Z,103616.41
2023-02-12T20:11:32.192Z,103674.31
2023-02-12T20:14:04.095Z,103689.59
2023-02-12T20:16:38.167Z,103681.09
2023-02-12T20:19:11.386Z,103687.06
2023-02-12T20:21:40.517Z,103686.31
2023-02-12T20:24:09.490Z,103687.97
2023-02-12T20:26:37.975Z,103674.91
2023-02-12T20:29:07.946Z,103683.53
2023-02-12T20:31:38.317Z,103681.41
2023-02-12T20:34:10.149Z,103679.63
2023-02-12T20:36:41.766Z,103579.75
2023-02-12T20:39:13.528Z,103684.47
2023-02-12T20:41:42.867Z,103669.25
2023-02-12T20:44:15.788Z,103654.91
2023-02-12T20:46:46.124Z,103683.84
2023-02-12T20:49:16.241Z,103689.16
2023-02-12T20:51:45.385Z,103665.75
2023-02-12T20:54:13.848Z,103684.94
2023-02-12T20:56:42.311Z,103694.72
2023-02-12T20:59:12.723Z,103691.22
2023-02-12T21:01:42.984Z,103664.31
2023-02-12T21:04:13.328Z,103687.00
2023-02-12T21:06:42.870Z,103689.66
2023-02-12T21:09:13.164Z,103652.63
2023-02-12T21:11:45.088Z,103689.75
2023-02-12T21:14:24.576Z,103689.66
2023-02-12T21:16:54.499Z,103698.63
2023-02-12T21:19:23.283Z,103693.28
2023-02-12T21:21:52.048Z,103687.19
2023-02-12T21:24:23.441Z,103685.41
2023-02-12T21:26:53.278Z,103686.31
2023-02-12T21:29:26.471Z,103691.66
2023-02-12T21:31:55.154Z,103684.69
2023-02-12T21:34:25.019Z,103677.56
2023-02-12T21:36:55.936Z,103667.72
2023-02-12T21:39:27.768Z,103673.91
2023-02-12T21:41:58.225Z,103676.72
2023-02-12T21:44:28.384Z,103668.44
2023-02-12T21:46:57.569Z,103675.59
2023-02-12T21:49:27.767Z,103679.06
2023-02-12T21:51:58.580Z,103691.44
2023-02-12T21:54:27.370Z,103652.69
2023-02-12T21:56:56.376Z,103680.84
2023-02-12T21:59:26.473Z,103684.34
2023-02-12T22:01:58.568Z,103673.75
2023-02-12T22:04:27.921Z,103681.91
2023-02-12T22:06:56.571Z,103679.16
2023-02-12T22:09:25.063Z,103680.16
2023-02-12T22:11:53.690Z,103664.97
2023-02-12T22:14:23.298Z,103650.34
2023-02-12T22:16:51.792Z,103667.53
2023-02-12T22:19:21.579Z,103661.00
2023-02-12T22:21:52.534Z,103655.78
2023-02-12T22:24:21.764Z,103640.63
2023-02-12T22:26:50.100Z,103664.88
2023-02-12T22:29:18.910Z,103664.88
2023-02-12T22:31:48.140Z,103661.44
2023-02-12T22:34:19.634Z,103651.72
2023-02-12T22:36:49.752Z,103654.47
2023-02-12T22:39:18.615Z,103655.19
2023-02-12T22:41:47.379Z,103621.91
2023-02-12T22:44:18.047Z,103652.31
2023-02-12T22:46:47.831Z,103659.56
2023-02-12T22:49:16.919Z,103653.00
2023-02-12T22:51:45.287Z,103657.72
2023-02-12T22:54:17.883Z,103657.22
2023-02-12T22:56:47.059Z,103660.81
2023-02-12T22:59:15.374Z,103653.97
2023-02-12T23:01:43.912Z,103646.38
2023-02-12T23:04:16.702Z,103658.09
2023-02-12T23:06:46.363Z,103654.91
2023-02-12T23:09:19.001Z,103635.19
2023-02-12T23:11:48.350Z,103649.50
2023-02-12T23:14:16.675Z,103654.63
2023-02-12T23:16:45.059Z,103653.97
2023-02-12T23:19:13.941Z,103649.50
2023-02-12T23:21:42.545Z,103655.22
2023-02-12T23:24:16.184Z,103647.28
2023-02-12T23:26:44.857Z,103650.63
2023-02-12T23:29:14.524Z,103641.84
2023-02-12T23:31:43.259Z,103640.94
2023-02-12T23:34:11.628Z,103641.31
2023-02-12T23:36:40.032Z,103642.09
2023-02-12T23:39:09.578Z,103636.03
2023-02-12T23:41:39.322Z,103640.47
2023-02-12T23:44:07.938Z,103632.59
2023-02-12T23:46:36.385Z,103631.47
2023-02-12T23:49:05.494Z,103627.13
2023-02-12T23:51:33.999Z,103628.38
2023-02-12T23:54:02.460Z,103597.13
2023-02-12T23:56:30.768Z,103639.16
2023-02-12T23:59:00.526Z,103624.41
